Time;durP1;ratioP1;P1;durP2;ratioP2;P2;SDS_P1;SDS_P2;PMS_P1;PMS_P2;Temp;Humidity;BMP_temperature;BMP_pressure;BME280_temperature;BME280_humidity;BME280_pressure;Samples;Min_cycle;Max_cycle;Signal;HPM_P1;HPM_P2
2023/03/13 00:00:16;;;;;;;7.35;5.40;;;;;;;2.96;40.86;94053.97;5012371;28;20144;-78
2023/03/13 00:02:45;;;;;;;9.75;7.60;;;;;;;2.92;40.30;94048.44;5014103;28;20100;-78
2023/03/13 00:05:11;;;;;;;7.10;6.10;;;;;;;2.88;39.78;94034.25;5012794;28;20037;-77
2023/03/13 00:07:37;;;;;;;6.32;5.57;;;;;;;2.92;40.17;94031.88;4993466;28;20084;-77
2023/03/13 00:10:04;;;;;;;5.95;5.35;;;;;;;2.88;40.92;94036.09;5013007;28;20061;-77
2023/03/13 00:12:29;;;;;;;6.22;4.88;;;;;;;2.87;40.84;94045.00;4992850;28;20053;-78
2023/03/13 00:14:55;;;;;;;7.05;5.78;;;;;;;2.85;40.67;94054.97;5011570;28;20068;-77
2023/03/13 00:17:20;;;;;;;7.10;5.47;;;;;;;2.67;40.76;94022.09;5010463;28;20108;-77
2023/03/13 00:19:45;;;;;;;5.05;4.55;;;;;;;2.77;40.19;94024.75;5010744;28;20414;-77
2023/03/13 00:22:11;;;;;;;7.00;4.97;;;;;;;2.79;40.32;94027.91;5012051;28;20056;-77
2023/03/13 00:24:36;;;;;;;8.07;5.75;;;;;;;2.85;39.25;94031.34;5011646;28;20507;-77
2023/03/13 00:27:03;;;;;;;7.80;5.72;;;;;;;2.92;39.79;94060.78;5007784;28;20038;-78
2023/03/13 00:29:31;;;;;;;5.45;4.95;;;;;;;2.84;40.29;94061.31;5012803;28;20038;-77
2023/03/13 00:31:56;;;;;;;6.20;5.22;;;;;;;2.74;40.61;94053.38;5011055;28;20081;-78
2023/03/13 00:34:25;;;;;;;6.70;5.10;;;;;;;2.76;41.03;94064.41;4994965;28;20518;-78
2023/03/13 00:36:50;;;;;;;6.80;5.38;;;;;;;2.59;41.04;94041.00;4992517;28;20121;-78
2023/03/13 00:39:16;;;;;;;6.03;5.38;;;;;;;2.71;40.94;94067.00;4997844;28;20120;-78
2023/03/13 00:41:42;;;;;;;6.80;5.18;;;;;;;2.39;41.03;94019.91;5010213;28;20029;-78
2023/03/13 00:44:08;;;;;;;7.53;5.05;;;;;;;2.67;41.25;94063.34;5012199;28;20596;-77
2023/03/13 00:46:33;;;;;;;6.82;3.75;;;;;;;2.56;41.23;94064.34;5011961;28;20030;-77
2023/03/13 00:48:59;;;;;;;4.75;4.35;;;;;;;2.73;40.45;94070.19;5009683;28;20033;-77
2023/03/13 00:51:25;;;;;;;6.43;5.47;;;;;;;2.50;40.79;94040.69;5009406;28;20037;-77
2023/03/13 00:53:51;;;;;;;6.53;5.28;;;;;;;2.47;40.97;94041.22;5008025;28;20033;-78
2023/03/13 00:56:19;;;;;;;6.40;4.80;;;;;;;2.56;40.88;94059.09;5012286;28;20026;-77
2023/03/13 00:58:47;;;;;;;5.05;4.57;;;;;;;2.59;41.16;94058.59;5010316;28;20037;-77
2023/03/13 01:01:22;;;;;;;5.22;4.47;;;;;;;2.41;41.01;94036.97;5011223;28;20037;-77
2023/03/13 01:04:00;;;;;;;6.43;4.97;;;;;;;2.35;41.57;94031.97;5010785;28;20040;-77
2023/03/13 01:06:28;;;;;;;7.80;5.32;;;;;;;2.48;41.51;94063.00;5011720;28;20547;-77
2023/03/13 01:08:54;;;;;;;6.97;5.03;;;;;;;2.35;41.13;94030.13;5007374;28;20403;-78
2023/03/13 01:11:31;;;;;;;6.07;4.72;;;;;;;2.45;41.18;94045.16;5011140;28;20079;-77
2023/03/13 01:13:58;;;;;;;7.22;4.68;;;;;;;2.37;41.21;94035.13;5011570;28;20032;-77
2023/03/13 01:16:25;;;;;;;5.63;4.60;;;;;;;2.41;41.35;94036.97;5009192;28;20525;-77
2023/03/13 01:18:53;;;;;;;7.97;5.47;;;;;;;2.33;41.18;94026.19;5010179;28;20439;-78
2023/03/13 01:21:20;;;;;;;7.53;5.82;;;;;;;2.26;41.33;94015.13;5012184;28;20410;-78
2023/03/13 01:23:47;;;;;;;7.65;5.38;;;;;;;2.45;40.96;94053.78;5009941;28;20051;-79
2023/03/13 01:26:12;;;;;;;6.25;5.15;;;;;;;2.32;41.16;94035.88;5010611;28;20021;-77
2023/03/13 01:28:38;;;;;;;6.40;5.05;;;;;;;2.44;40.97;94049.59;5012570;28;20052;-77
2023/03/13 01:31:17;;;;;;;5.93;5.00;;;;;;;2.28;41.10;94045.31;4998151;28;20650;-78
2023/03/13 01:33:43;;;;;;;5.18;4.63;;;;;;;2.38;41.06;94061.13;5009157;28;20044;-78
2023/03/13 01:36:09;;;;;;;5.55;4.82;;;;;;;2.50;40.96;94069.56;5010888;28;20045;-77
2023/03/13 01:38:36;;;;;;;8.15;4.80;;;;;;;2.35;40.94;94069.50;4990775;28;20363;-77
2023/03/13 01:41:02;;;;;;;6.03;4.70;;;;;;;2.31;41.51;94073.66;5011591;28;20041;-77
2023/03/13 01:43:31;;;;;;;7.13;4.45;;;;;;;2.35;41.78;94074.75;5010682;28;20045;-76
2023/03/13 01:46:17;;;;;;;7.32;5.38;;;;;;;2.39;41.44;94075.84;4998560;28;20510;-78
2023/03/13 01:49:10;;;;;;;7.43;4.95;;;;;;;2.30;41.40;94053.75;4992897;28;20124;-77
2023/03/13 01:51:47;;;;;;;8.07;5.15;;;;;;;2.38;40.60;94052.44;5008572;28;20045;-78
2023/03/13 01:54:18;;;;;;;5.35;4.72;;;;;;;2.30;40.93;94034.59;5009640;28;20041;-78
2023/03/13 01:57:07;;;;;;;6.07;4.72;;;;;;;2.24;41.57;94048.72;4998578;28;20046;-78
2023/03/13 01:59:50;;;;;;;5.10;4.53;;;;;;;2.25;41.12;94042.44;5009277;28;20976;-77
2023/03/13 02:02:16;;;;;;;6.00;5.18;;;;;;;2.35;40.95;94069.50;5010572;28;20726;-77
2023/03/13 02:04:47;;;;;;;5.88;5.13;;;;;;;2.14;41.53;94043.41;5008898;28;20038;-78
2023/03/13 02:07:19;;;;;;;6.03;5.13;;;;;;;2.32;41.44;94075.25;5008271;28;20137;-77
2023/03/13 02:09:50;;;;;;;5.05;4.55;;;;;;;2.33;41.39;94071.59;5011849;28;20538;-77
2023/03/13 02:12:28;;;;;;;8.48;5.20;;;;;;;2.06;41.17;94027.09;5009965;28;20042;-78
2023/03/13 02:14:56;;;;;;;5.20;4.65;;;;;;;2.31;40.63;94068.44;5008223;28;20041;-77
2023/03/13 02:17:22;;;;;;;5.93;4.82;;;;;;;2.21;40.99;94068.38;5010436;28;20116;-79
2023/03/13 02:19:50;;;;;;;5.95;4.05;;;;;;;2.15;41.06;94069.41;4997187;28;20042;-77
2023/03/13 02:22:40;;;;;;;5.90;4.63;;;;;;;2.31;41.48;94092.03;4994858;28;20047;-78
2023/03/13 02:25:17;;;;;;;5.35;4.63;;;;;;;2.35;41.60;94095.75;5009425;28;20132;-78
2023/03/13 02:27:44;;;;;;;5.00;3.92;;;;;;;2.37;41.41;94104.16;4996314;28;20075;-78
2023/03/13 02:30:12;;;;;;;6.30;5.57;;;;;;;2.28;41.47;94095.19;5008367;28;20073;-77
2023/03/13 02:32:38;;;;;;;5.35;4.32;;;;;;;2.21;41.56;94093.81;5011665;28;20133;-77
2023/03/13 02:35:08;;;;;;;4.72;4.10;;;;;;;2.12;41.78;94090.88;5006846;28;20625;-79
2023/03/13 02:37:34;;;;;;;4.68;3.97;;;;;;;2.06;41.43;94071.69;5009627;28;20098;-77
2023/03/13 02:40:04;;;;;;;7.18;3.85;;;;;;;2.17;41.90;94104.03;5004953;28;20484;-78
2023/03/13 02:42:30;;;;;;;4.95;4.28;;;;;;;2.04;42.34;94109.75;5009618;28;20428;-78
2023/03/13 02:44:56;;;;;;;5.20;4.20;;;;;;;1.86;42.12;94087.31;5002157;28;20386;-79
2023/03/13 02:47:24;;;;;;;5.50;4.55;;;;;;;1.84;42.65;94099.06;5006319;28;20422;-77
2023/03/13 02:49:52;;;;;;;6.40;4.80;;;;;;;2.11;42.58;94144.41;5009575;28;20161;-77
2023/03/13 02:52:25;;;;;;;4.72;4.25;;;;;;;2.29;41.93;94137.97;5003802;28;20038;-77
2023/03/13 02:54:54;;;;;;;6.25;4.18;;;;;;;2.04;42.42;94105.28;5009326;28;20209;-78
2023/03/13 02:57:19;;;;;;;5.75;4.68;;;;;;;2.02;42.49;94117.06;5011624;28;20132;-79
2023/03/13 02:59:45;;;;;;;4.72;4.30;;;;;;;1.87;42.30;94098.59;5007691;28;20061;-77
2023/03/13 03:02:10;;;;;;;5.35;4.32;;;;;;;2.11;41.90;94131.28;5008247;28;20029;-78
2023/03/13 03:04:36;;;;;;;5.10;4.60;;;;;;;1.95;42.18;94112.03;5009578;28;20041;-77
2023/03/13 03:07:01;;;;;;;5.07;4.57;;;;;;;2.12;42.34;94138.13;5007459;28;20785;-80
2023/03/13 03:09:26;;;;;;;6.40;4.68;;;;;;;2.07;42.36;94125.75;4990457;28;20424;-78
2023/03/13 03:11:52;;;;;;;5.28;4.28;;;;;;;1.99;42.42;94123.63;5008943;28;20108;-78
2023/03/13 03:14:17;;;;;;;4.60;4.05;;;;;;;2.05;42.74;94132.31;5007401;28;20068;-77
2023/03/13 03:16:43;;;;;;;5.30;4.28;;;;;;;2.06;42.70;94126.00;5008745;28;20103;-79
2023/03/13 03:19:09;;;;;;;4.90;4.40;;;;;;;2.12;42.59;94153.84;5006319;28;20087;-78
2023/03/13 03:21:35;;;;;;;6.32;5.22;;;;;;;2.02;43.07;94159.03;5014268;28;20046;-77
2023/03/13 03:24:01;;;;;;;5.82;4.60;;;;;;;2.20;42.34;94174.41;5013451;28;20080;-78
2023/03/13 03:26:26;;;;;;;5.30;4.63;;;;;;;2.20;42.16;94177.03;5016563;28;20029;-78
2023/03/13 03:28:52;;;;;;;6.75;5.20;;;;;;;1.90;42.45;94167.09;4999234;28;20672;-77
2023/03/13 03:31:18;;;;;;;6.60;5.40;;;;;;;1.97;42.80;94183.41;5012724;28;20033;-77
2023/03/13 03:33:44;;;;;;;8.15;5.45;;;;;;;1.88;43.00;94178.84;5016093;28;20537;-78
2023/03/13 03:36:17;;;;;;;5.25;4.53;;;;;;;1.81;43.03;94167.78;5015248;28;20464;-78
2023/03/13 03:38:44;;;;;;;4.20;3.78;;;;;;;1.88;43.28;94189.34;4995971;28;20526;-78
2023/03/13 03:41:11;;;;;;;5.97;4.20;;;;;;;1.72;43.37;94164.78;4998250;28;20042;-77
2023/03/13 03:43:37;;;;;;;7.22;4.30;;;;;;;1.79;43.29;94180.31;5014377;28;20030;-79
2023/03/13 03:46:02;;;;;;;6.00;4.38;;;;;;;1.93;43.21;94195.44;5016301;28;20041;-77
2023/03/13 03:48:28;;;;;;;6.18;4.85;;;;;;;1.56;43.53;94171.75;5014825;28;20046;-77
2023/03/13 03:50:53;;;;;;;5.53;4.10;;;;;;;1.69;43.60;94212.50;5017581;28;20018;-77
2023/03/13 03:53:18;;;;;;;6.03;4.80;;;;;;;1.59;43.50;94200.06;5014739;28;20081;-78
2023/03/13 03:55:44;;;;;;;4.75;4.25;;;;;;;1.62;43.60;94207.44;5015194;28;20545;-79
2023/03/13 03:58:09;;;;;;;5.30;4.40;;;;;;;1.57;43.35;94194.28;5015705;28;20033;-77
2023/03/13 04:00:35;;;;;;;6.97;4.78;;;;;;;1.76;43.56;94214.94;5015656;28;20022;-77
2023/03/13 04:03:01;;;;;;;6.60;5.00;;;;;;;1.60;43.64;94220.03;5019498;28;20032;-77
2023/03/13 04:05:26;;;;;;;5.65;4.80;;;;;;;1.45;43.54;94206.75;5017668;28;20481;-78
2023/03/13 04:07:51;;;;;;;6.10;5.47;;;;;;;1.53;43.69;94208.13;5017639;28;20041;-78
2023/03/13 04:10:17;;;;;;;7.22;6.18;;;;;;;1.63;43.80;94224.75;5012629;28;20679;-78
2023/03/13 04:12:42;;;;;;;7.10;5.78;;;;;;;1.34;43.75;94205.06;5015517;28;20581;-77
2023/03/13 04:15:08;;;;;;;8.00;6.00;;;;;;;1.36;43.77;94234.44;5012184;28;20042;-79
2023/03/13 04:17:34;;;;;;;7.25;5.85;;;;;;;1.34;43.86;94225.22;5014074;28;20022;-78
2023/03/13 04:19:59;;;;;;;9.90;6.90;;;;;;;1.45;44.00;94232.97;5016619;28;20041;-78
2023/03/13 04:22:25;;;;;;;8.68;6.90;;;;;;;1.31;44.15;94231.75;4996816;28;20087;-78
2023/03/13 04:24:50;;;;;;;9.55;7.05;;;;;;;1.23;44.59;94224.31;5001261;28;20072;-76
2023/03/13 04:27:16;;;;;;;9.32;7.50;;;;;;;1.26;44.58;94229.09;4996897;28;20432;-78
2023/03/13 04:29:42;;;;;;;11.30;7.95;;;;;;;1.43;44.62;94245.50;4994763;28;20029;-77
2023/03/13 04:32:07;;;;;;;10.27;9.18;;;;;;;1.29;44.97;94243.50;4991630;28;20041;-78
2023/03/13 04:34:33;;;;;;;8.85;7.68;;;;;;;1.31;45.18;94260.59;4993620;28;20541;-77
2023/03/13 04:36:58;;;;;;;11.63;8.13;;;;;;;1.26;45.20;94246.63;4978492;28;20149;-77
2023/03/13 04:39:24;;;;;;;11.48;8.80;;;;;;;1.23;45.43;94256.56;4990875;28;20038;-77
2023/03/13 04:41:54;;;;;;;20.55;9.55;;;;;;;1.35;45.24;94282.66;4979849;28;20095;-78
2023/03/13 04:44:21;;;;;;;9.63;8.43;;;;;;;1.40;45.03;94287.16;4993423;28;20262;-79
2023/03/13 04:46:46;;;;;;;12.07;8.90;;;;;;;1.17;45.09;94277.72;4989130;28;20037;-78
2023/03/13 04:49:13;;;;;;;9.55;7.47;;;;;;;1.17;45.32;94267.22;4993682;28;20144;-79
2023/03/13 04:51:39;;;;;;;11.35;7.68;;;;;;;1.08;45.61;94268.69;4978599;28;20044;-77
2023/03/13 04:54:05;;;;;;;10.10;7.97;;;;;;;1.12;45.62;94275.03;4993841;28;20573;-77
2023/03/13 04:56:30;;;;;;;9.85;7.60;;;;;;;1.21;45.63;94291.91;4992183;28;20198;-77
2023/03/13 04:58:56;;;;;;;8.60;7.57;;;;;;;1.12;45.70;94285.50;4992554;28;20108;-77
2023/03/13 05:01:21;;;;;;;14.93;8.55;;;;;;;1.21;45.87;94294.53;4976748;28;20030;-78
2023/03/13 05:03:48;;;;;;;8.88;6.65;;;;;;;1.28;45.87;94296.97;4989556;28;20062;-78
2023/03/13 05:06:13;;;;;;;10.10;7.60;;;;;;;1.22;45.69;94270.72;4992458;28;20030;-77
2023/03/13 05:08:39;;;;;;;7.63;6.05;;;;;;;1.11;45.70;94247.25;4971930;28;20631;-78
2023/03/13 05:11:04;;;;;;;9.05;6.68;;;;;;;1.36;45.53;94291.31;4992152;28;20042;-79
2023/03/13 05:13:30;;;;;;;9.60;7.55;;;;;;;1.32;45.63;94277.91;4990215;28;20176;-78
2023/03/13 05:15:55;;;;;;;8.38;5.72;;;;;;;1.23;45.33;94267.03;4990999;28;20045;-78
2023/03/13 05:18:21;;;;;;;8.00;6.45;;;;;;;1.33;45.25;94276.84;4989507;28;20510;-78
2023/03/13 05:20:46;;;;;;;7.97;6.25;;;;;;;1.51;45.37;94294.91;4991797;28;20935;-78
2023/03/13 05:23:12;;;;;;;9.10;6.30;;;;;;;1.45;45.52;94288.00;4989366;28;20053;-77
2023/03/13 05:25:37;;;;;;;11.15;8.98;;;;;;;1.46;45.46;94289.59;5007437;28;20041;-78
2023/03/13 05:28:03;;;;;;;20.27;9.70;;;;;;;1.51;45.58;94315.88;5006863;28;20247;-77
2023/03/13 05:30:28;;;;;;;19.20;11.13;;;;;;;1.74;45.13;94314.81;5010535;28;20836;-77
2023/03/13 05:32:54;;;;;;;20.95;10.75;;;;;;;1.88;45.30;94325.75;5010488;28;20158;-79
2023/03/13 05:35:19;;;;;;;31.35;11.50;;;;;;;1.72;45.47;94301.16;5008154;28;20073;-78
2023/03/13 05:37:45;;;;;;;21.10;11.70;;;;;;;2.02;45.33;94332.19;5010862;28;20046;-78
2023/03/13 05:40:11;;;;;;;16.88;11.82;;;;;;;1.79;45.03;94316.69;5007135;28;20131;-77
2023/03/13 05:42:37;;;;;;;21.27;13.00;;;;;;;1.54;46.06;94332.94;5009068;28;20041;-77
2023/03/13 05:45:03;;;;;;;17.35;13.05;;;;;;;1.14;46.53;94325.34;5010778;28;20636;-77
2023/03/13 05:47:28;;;;;;;28.05;14.68;;;;;;;1.11;47.00;94325.84;5009772;28;20025;-79
2023/03/13 05:49:54;;;;;;;19.90;13.48;;;;;;;1.56;46.37;94320.38;5008664;28;20033;-79
2023/03/13 05:52:19;;;;;;;19.38;13.40;;;;;;;1.66;46.09;94308.19;5009447;28;20117;-77
2023/03/13 05:54:44;;;;;;;21.77;12.48;;;;;;;1.92;45.41;94321.59;4991707;28;20077;-78
2023/03/13 05:57:10;;;;;;;18.48;12.88;;;;;;;1.77;45.68;94326.63;5011348;28;20030;-77
2023/03/13 05:59:35;;;;;;;19.83;12.52;;;;;;;1.59;46.46;94343.47;5009383;28;20044;-77
2023/03/13 06:02:01;;;;;;;23.30;14.25;;;;;;;2.18;44.93;94331.31;5009561;28;20422;-78
2023/03/13 06:04:26;;;;;;;15.38;12.77;;;;;;;2.13;45.02;94328.63;5009560;28;20053;-78
2023/03/13 06:06:52;;;;;;;23.67;12.57;;;;;;;2.42;44.68;94352.78;5009078;28;20041;-77
2023/03/13 06:09:17;;;;;;;20.40;13.30;;;;;;;2.19;45.33;94321.59;5011614;28;20040;-78
2023/03/13 06:11:42;;;;;;;19.17;12.77;;;;;;;2.46;44.64;94359.91;5009463;28;20069;-77
2023/03/13 06:14:08;;;;;;;17.67;13.35;;;;;;;2.38;44.92;94356.97;4992144;28;20040;-78
2023/03/13 06:16:33;;;;;;;15.52;12.48;;;;;;;2.47;44.64;94351.00;5008750;28;20030;-78
2023/03/13 06:18:59;;;;;;;15.95;12.55;;;;;;;2.36;44.48;94317.81;5007697;28;20509;-77
2023/03/13 06:21:25;;;;;;;16.50;11.20;;;;;;;2.69;43.52;94353.56;5008684;28;20571;-78
2023/03/13 06:23:50;;;;;;;16.20;11.25;;;;;;;2.74;43.44;94348.34;5011852;28;20116;-79
2023/03/13 06:26:15;;;;;;;14.15;10.55;;;;;;;2.68;42.42;94338.84;4992037;28;20041;-78
2023/03/13 06:28:41;;;;;;;21.00;12.50;;;;;;;2.67;43.10;94336.47;5009163;28;20096;-78
2023/03/13 06:31:06;;;;;;;16.98;11.55;;;;;;;2.07;44.28;94361.09;5009239;28;20061;-78
2023/03/13 06:33:32;;;;;;;17.10;9.90;;;;;;;1.63;44.72;94355.84;5008653;28;20039;-77
2023/03/13 06:36:00;;;;;;;12.73;8.90;;;;;;;2.42;42.74;94348.34;5012976;28;20057;-77
2023/03/13 06:38:26;;;;;;;13.90;11.65;;;;;;;2.35;43.43;94345.09;5005539;28;20025;-77
2023/03/13 06:40:52;;;;;;;15.88;10.57;;;;;;;2.41;42.83;94303.94;5007792;28;20437;-77
2023/03/13 06:43:18;;;;;;;15.05;11.73;;;;;;;2.20;43.91;94339.75;5008284;28;20084;-78
2023/03/13 06:45:44;;;;;;;16.05;12.25;;;;;;;2.07;45.22;94329.63;5005421;28;20033;-78
2023/03/13 06:48:09;;;;;;;20.35;13.13;;;;;;;1.56;46.15;94326.41;5010696;28;20034;-78
2023/03/13 06:50:38;;;;;;;18.92;12.13;;;;;;;1.84;45.42;94335.13;4990099;28;20117;-77
2023/03/13 06:53:04;;;;;;;15.93;11.43;;;;;;;2.32;43.13;94324.63;4992859;28;20040;-78
2023/03/13 06:55:30;;;;;;;18.58;13.32;;;;;;;2.21;43.80;94312.44;5008296;28;20034;-78
2023/03/13 06:57:55;;;;;;;17.30;12.18;;;;;;;2.06;44.83;94336.69;4989730;28;20093;-79
2023/03/13 07:00:21;;;;;;;18.35;12.38;;;;;;;1.89;45.25;94340.44;5008404;28;20034;-78
2023/03/13 07:02:47;;;;;;;18.70;12.38;;;;;;;2.07;45.29;94340.09;5008570;28;20072;-77
2023/03/13 07:05:13;;;;;;;17.88;11.95;;;;;;;2.69;43.83;94334.38;5010474;28;20053;-78
2023/03/13 07:07:40;;;;;;;15.55;11.27;;;;;;;2.22;44.37;94337.63;5009264;28;20033;-77
2023/03/13 07:10:06;;;;;;;17.95;12.25;;;;;;;2.09;44.44;94338.84;5008622;28;20049;-78
2023/03/13 07:12:32;;;;;;;18.20;12.05;;;;;;;1.42;45.12;94312.09;5007988;28;20514;-78
2023/03/13 07:14:58;;;;;;;19.58;11.82;;;;;;;1.22;45.90;94348.53;5006772;28;20025;-77
2023/03/13 07:17:23;;;;;;;16.13;11.02;;;;;;;1.33;45.77;94326.63;5011650;28;20032;-78
2023/03/13 07:19:49;;;;;;;14.45;10.48;;;;;;;1.57;45.36;94319.34;5008105;28;20060;-78
2023/03/13 07:22:14;;;;;;;16.02;12.73;;;;;;;2.23;43.55;94309.56;5007321;28;20466;-77
2023/03/13 07:24:39;;;;;;;16.08;11.07;;;;;;;2.48;43.42;94331.59;5005243;28;20133;-78
2023/03/13 07:27:05;;;;;;;13.02;10.88;;;;;;;2.01;44.26;94312.25;4992995;28;20093;-77
2023/03/13 07:29:30;;;;;;;13.10;9.88;;;;;;;1.78;44.12;94308.03;5006396;28;20361;-77
2023/03/13 07:31:55;;;;;;;14.98;10.35;;;;;;;2.03;43.55;94308.34;5008726;28;20045;-77
2023/03/13 07:34:21;;;;;;;16.92;10.93;;;;;;;2.25;43.12;94310.91;5007949;28;20414;-78
2023/03/13 07:36:46;;;;;;;13.23;10.30;;;;;;;2.80;42.25;94307.13;5008314;28;20087;-78
2023/03/13 07:39:11;;;;;;;12.80;10.75;;;;;;;2.23;42.83;94301.69;5007338;28;20497;-78
2023/03/13 07:41:38;;;;;;;11.05;9.70;;;;;;;2.71;42.69;94329.66;4989855;28;20056;-77
2023/03/13 07:44:03;;;;;;;11.18;9.98;;;;;;;2.62;42.14;94326.72;5008855;28;20038;-77
2023/03/13 07:46:28;;;;;;;13.30;10.38;;;;;;;1.79;43.51;94325.38;5008780;28;20045;-79
2023/03/13 07:48:54;;;;;;;13.43;10.20;;;;;;;2.01;43.01;94314.88;5009622;28;20069;-78
2023/03/13 07:51:23;;;;;;;11.50;9.95;;;;;;;2.75;42.04;94328.09;4995223;28;20032;-77
2023/03/13 07:53:49;;;;;;;12.70;9.95;;;;;;;3.17;40.82;94342.09;5007255;28;20456;-78
2023/03/13 07:56:17;;;;;;;15.18;10.90;;;;;;;3.07;40.98;94281.56;5008322;28;20032;-77
2023/03/13 07:58:43;;;;;;;16.08;10.77;;;;;;;3.27;41.27;94313.22;5008780;28;20125;-77
2023/03/13 08:01:17;;;;;;;15.88;11.20;;;;;;;3.59;40.08;94314.94;5009257;28;20128;-77
2023/03/13 08:03:44;;;;;;;16.30;11.13;;;;;;;3.11;41.20;94303.66;4994248;28;20042;-76
2023/03/13 08:06:12;;;;;;;19.27;12.00;;;;;;;2.66;42.01;94301.53;5010293;28;20060;-78
2023/03/13 08:08:39;;;;;;;15.18;11.93;;;;;;;2.71;43.09;94319.94;5012879;28;20025;-77
2023/03/13 08:11:18;;;;;;;21.38;11.63;;;;;;;3.11;42.18;94323.91;5012428;28;20038;-77
2023/03/13 08:13:44;;;;;;;18.13;11.73;;;;;;;3.07;42.21;94309.69;4998846;28;20053;-77
2023/03/13 08:16:32;;;;;;;16.52;12.43;;;;;;;3.23;40.95;94295.59;4993196;28;20524;-77
2023/03/13 08:18:59;;;;;;;15.63;11.98;;;;;;;3.52;41.13;94309.13;5011791;28;20537;-77
2023/03/13 08:21:30;;;;;;;16.50;11.80;;;;;;;3.81;40.76;94313.72;4993085;28;20183;-78
2023/03/13 08:24:02;;;;;;;16.70;13.30;;;;;;;3.31;41.68;94316.13;5011302;28;20809;-76
2023/03/13 08:26:29;;;;;;;18.92;12.25;;;;;;;3.31;41.59;94311.66;5011255;28;20057;-77
2023/03/13 08:29:00;;;;;;;15.68;11.77;;;;;;;2.93;42.86;94322.47;5012580;28;20038;-78
2023/03/13 08:31:28;;;;;;;18.45;13.15;;;;;;;2.63;42.88;94322.25;4999920;28;20148;-77
2023/03/13 08:33:54;;;;;;;16.23;12.40;;;;;;;3.24;42.47;94318.97;5006804;28;20549;-77
2023/03/13 08:36:23;;;;;;;15.23;12.25;;;;;;;3.73;41.33;94305.50;5013271;28;20061;-78
2023/03/13 08:38:51;;;;;;;16.08;11.95;;;;;;;4.14;40.71;94316.97;5009746;28;20033;-77
2023/03/13 08:41:22;;;;;;;17.52;12.40;;;;;;;3.99;40.41;94320.34;5012298;28;20144;-79
2023/03/13 08:43:50;;;;;;;14.75;11.75;;;;;;;2.69;41.25;94187.31;5010826;28;20034;-78
2023/03/13 08:46:16;;;;;;;18.95;13.13;;;;;;;3.13;42.03;94300.78;5013716;28;20034;-76
2023/03/13 08:48:42;;;;;;;18.42;12.65;;;;;;;3.27;41.89;94300.09;5010145;28;20037;-78
2023/03/13 08:51:12;;;;;;;18.58;13.43;;;;;;;3.33;42.04;94290.38;4996271;28;20030;-79
2023/03/13 08:53:39;;;;;;;18.05;13.95;;;;;;;2.43;43.54;94268.53;5008743;28;20029;-77
2023/03/13 08:56:05;;;;;;;26.50;13.27;;;;;;;2.78;43.71;94309.22;5011290;28;20631;-78
2023/03/13 08:58:31;;;;;;;18.33;13.63;;;;;;;2.17;44.27;94286.94;4990476;28;20068;-77
2023/03/13 09:01:08;;;;;;;19.80;13.77;;;;;;;2.53;43.95;94321.13;5011599;28;20435;-78
2023/03/13 09:03:34;;;;;;;20.40;13.57;;;;;;;2.75;44.00;94307.09;4993146;28;20038;-78
2023/03/13 09:06:01;;;;;;;19.15;13.90;;;;;;;3.34;42.55;94298.00;5011975;28;20477;-78
2023/03/13 09:08:27;;;;;;;23.15;12.70;;;;;;;3.86;42.15;94304.25;5011103;28;20034;-79
2023/03/13 09:10:56;;;;;;;21.58;14.05;;;;;;;3.73;42.54;94297.63;5011375;28;20038;-76
2023/03/13 09:13:22;;;;;;;22.05;13.90;;;;;;;4.23;40.95;94316.19;5010016;28;20378;-78
2023/03/13 09:15:58;;;;;;;20.98;13.95;;;;;;;4.38;40.42;94291.75;5010712;28;20053;-77
2023/03/13 09:18:23;;;;;;;19.63;15.73;;;;;;;4.12;40.61;94276.94;5010104;28;20514;-77
2023/03/13 09:20:49;;;;;;;21.50;14.30;;;;;;;4.02;41.00;94297.97;5010046;28;20029;-78
2023/03/13 09:23:14;;;;;;;21.25;14.73;;;;;;;3.79;42.03;94299.22;5008575;28;20552;-77
2023/03/13 09:25:40;;;;;;;19.75;14.57;;;;;;;2.85;43.24;94299.28;4995911;28;20039;-77
2023/03/13 09:28:05;;;;;;;20.67;14.68;;;;;;;3.31;42.75;94266.19;4990477;28;20533;-78
2023/03/13 09:30:31;;;;;;;22.35;15.32;;;;;;;3.90;41.58;94290.31;4991832;28;20073;-77
2023/03/13 09:32:56;;;;;;;18.88;15.82;;;;;;;4.19;41.15;94298.53;4989908;28;20017;-76
2023/03/13 09:35:22;;;;;;;21.13;14.35;;;;;;;4.28;40.66;94271.44;4988925;28;20306;-79
2023/03/13 09:37:47;;;;;;;21.08;15.63;;;;;;;4.38;40.67;94318.09;4990161;28;20097;-77
2023/03/13 09:40:16;;;;;;;21.55;15.15;;;;;;;4.56;40.18;94287.78;4988202;28;20679;-78
2023/03/13 09:42:59;;;;;;;21.63;16.27;;;;;;;4.90;39.72;94301.22;4991793;28;20129;-78
2023/03/13 09:45:30;;;;;;;21.95;15.73;;;;;;;4.94;39.39;94305.69;4990249;28;20041;-77
2023/03/13 09:48:01;;;;;;;19.30;15.63;;;;;;;4.49;41.71;94292.53;4989336;28;20196;-79
2023/03/13 09:50:33;;;;;;;26.20;16.00;;;;;;;4.44;41.13;94309.13;4990819;28;20109;-77
2023/03/13 09:53:04;;;;;;;21.65;16.08;;;;;;;4.50;40.97;94294.91;4991159;28;20494;-77
2023/03/13 09:55:33;;;;;;;23.50;16.65;;;;;;;4.34;40.93;94260.94;4975209;28;20082;-79
2023/03/13 09:58:03;;;;;;;21.50;16.75;;;;;;;4.33;41.20;94272.50;4976667;28;20030;-77
2023/03/13 10:00:40;;;;;;;22.92;16.55;;;;;;;4.43;40.69;94262.78;4990869;28;20153;-78
2023/03/13 10:03:59;;;;;;;25.33;18.08;;;;;;;4.67;40.19;94289.38;4978393;28;20053;-78
2023/03/13 10:06:27;;;;;;;24.55;15.75;;;;;;;5.16;42.09;94265.84;4933192;28;20043;-78
2023/03/13 10:08:53;;;;;;;23.92;16.90;;;;;;;5.60;39.76;94281.00;4985989;28;20106;-77
2023/03/13 10:11:46;;;;;;;21.08;16.13;;;;;;;5.50;39.37;94235.13;4993185;28;20029;-78
2023/03/13 10:14:39;;;;;;;20.40;15.93;;;;;;;5.57;38.46;94282.34;4991175;28;20038;-77
2023/03/13 10:17:27;;;;;;;18.67;15.20;;;;;;;5.78;38.84;94272.47;4986715;28;20042;-76
2023/03/13 10:20:00;;;;;;;22.73;16.55;;;;;;;5.54;39.58;94249.34;4987421;28;20104;-77
2023/03/13 10:22:29;;;;;;;22.63;16.98;;;;;;;5.51;39.71;94254.41;4994528;28;20533;-78
2023/03/13 10:24:58;;;;;;;20.80;15.90;;;;;;;4.86;40.33;94265.91;5000644;28;20600;-78
2023/03/13 10:27:23;;;;;;;22.55;16.80;;;;;;;5.19;39.85;94261.91;5011708;28;20427;-76
2023/03/13 10:29:48;;;;;;;27.60;17.23;;;;;;;5.20;39.67;94213.34;5008967;28;20031;-78
2023/03/13 10:32:16;;;;;;;27.08;18.13;;;;;;;4.80;40.11;94220.31;5010885;28;20033;-77
2023/03/13 10:34:52;;;;;;;26.85;17.50;;;;;;;5.24;40.82;94240.75;5010526;28;20227;-77
2023/03/13 10:37:26;;;;;;;21.60;17.35;;;;;;;4.84;40.13;94215.31;5012978;28;20842;-76
2023/03/13 10:39:52;;;;;;;23.70;17.65;;;;;;;4.91;40.89;94216.59;5008227;28;20056;-77
2023/03/13 10:42:24;;;;;;;25.40;16.98;;;;;;;5.29;40.58;94238.91;5011615;28;20065;-77
2023/03/13 10:44:57;;;;;;;22.42;17.98;;;;;;;5.08;40.30;94201.28;5009616;28;20025;-78
2023/03/13 10:47:22;;;;;;;26.40;19.05;;;;;;;5.19;40.08;94227.63;5011037;28;20025;-77
2023/03/13 10:49:50;;;;;;;22.42;18.00;;;;;;;5.60;39.56;94228.22;5009575;28;20460;-77
2023/03/13 10:52:49;;;;;;;31.83;20.73;;;;;;;5.54;40.00;94222.97;5007819;28;20168;-77
2023/03/13 10:55:20;;;;;;;25.73;18.48;;;;;;;5.66;39.78;94224.50;5002167;28;20042;-78
2023/03/13 10:58:00;;;;;;;23.77;17.90;;;;;;;5.28;40.06;94218.09;5010738;28;20401;-78
2023/03/13 11:00:33;;;;;;;27.48;18.20;;;;;;;4.96;40.66;94195.50;5009276;28;20140;-77
2023/03/13 11:02:59;;;;;;;22.23;18.20;;;;;;;5.08;40.32;94216.31;5009336;28;20117;-77
2023/03/13 11:05:24;;;;;;;30.67;19.25;;;;;;;4.91;40.66;94207.91;5009933;28;20250;-77
2023/03/13 11:07:51;;;;;;;22.88;18.67;;;;;;;5.07;41.14;94202.34;5010294;28;20907;-77
2023/03/13 11:10:24;;;;;;;24.15;18.40;;;;;;;4.93;41.13;94209.25;5009833;28;20052;-78
2023/03/13 11:12:52;;;;;;;25.60;18.33;;;;;;;5.52;40.86;94185.53;5010683;28;20037;-79
2023/03/13 11:15:25;;;;;;;27.40;18.67;;;;;;;6.22;40.06;94195.91;5010804;28;20037;-80
2023/03/13 11:17:58;;;;;;;25.50;18.23;;;;;;;6.10;39.40;94192.81;5007346;28;20052;-78
2023/03/13 11:20:28;;;;;;;22.83;18.38;;;;;;;6.19;39.74;94184.06;5010260;28;20604;-79
2023/03/13 11:23:29;;;;;;;31.60;18.65;;;;;;;6.22;38.63;94188.00;5007572;28;20041;-77
2023/03/13 11:26:04;;;;;;;26.15;17.98;;;;;;;6.54;39.28;94182.19;5009978;28;20050;-78
2023/03/13 11:28:48;;;;;;;25.92;18.50;;;;;;;6.93;38.81;94182.84;5008506;28;20462;-78
2023/03/13 11:31:23;;;;;;;28.70;17.70;;;;;;;7.12;37.76;94169.69;5011057;28;20049;-77
2023/03/13 11:34:03;;;;;;;24.67;17.83;;;;;;;7.17;37.40;94166.97;5009873;28;20064;-78
2023/03/13 11:36:37;;;;;;;25.55;18.17;;;;;;;7.33;39.63;94165.75;5008957;28;20049;-79